createdAt,value
2022-09-12T00:01:49.264Z,15.22
2022-09-12T00:04:15.815Z,14.77
2022-09-12T00:06:42.333Z,14.10
2022-09-12T00:09:13.277Z,13.98
2022-09-12T00:11:41.330Z,13.95
2022-09-12T00:14:08.791Z,14.31
2022-09-12T00:16:35.964Z,14.27
2022-09-12T00:19:03.390Z,13.89
2022-09-12T00:21:30.032Z,13.92
2022-09-12T00:23:56.810Z,13.77
2022-09-12T00:26:24.602Z,13.94
2022-09-12T00:28:51.131Z,13.80
2022-09-12T00:31:19.765Z,13.68
2022-09-12T00:33:46.639Z,13.69
2022-09-12T00:36:19.455Z,13.64
2022-09-12T00:38:47.300Z,13.58
2022-09-12T00:41:21.875Z,13.51
2022-09-12T00:43:59.650Z,13.65
2022-09-12T00:46:26.149Z,13.54
2022-09-12T00:48:56.822Z,13.52
2022-09-12T00:51:23.370Z,13.46
2022-09-12T00:53:51.301Z,13.68
2022-09-12T00:56:18.818Z,13.29
2022-09-12T00:58:49.471Z,13.31
2022-09-12T01:01:16.001Z,13.47
2022-09-12T01:03:42.582Z,13.65
2022-09-12T01:06:14.156Z,13.23
2022-09-12T01:08:41.658Z,13.33
2022-09-12T01:11:09.922Z,13.20
2022-09-12T01:13:36.893Z,13.02
2022-09-12T01:16:04.753Z,13.03
2022-09-12T01:18:41.958Z,13.18
2022-09-12T01:21:08.445Z,13.02
2022-09-12T01:23:44.034Z,12.89
2022-09-12T01:26:22.454Z,12.95
2022-09-12T01:29:01.195Z,12.95
2022-09-12T01:31:27.632Z,13.04
2022-09-12T01:34:00.106Z,13.13
2022-09-12T01:36:38.132Z,13.21
2022-09-12T01:39:06.353Z,13.25
2022-09-12T01:41:32.747Z,12.98
2022-09-12T01:44:03.806Z,12.88
2022-09-12T01:46:35.280Z,12.65
2022-09-12T01:49:12.341Z,12.74
2022-09-12T01:51:42.446Z,12.60
2022-09-12T01:54:12.588Z,12.81
2022-09-12T01:56:40.798Z,12.58
2022-09-12T01:59:29.806Z,12.52
2022-09-12T02:02:19.426Z,12.63
2022-09-12T02:04:49.287Z,12.69
2022-09-12T02:07:20.627Z,12.59
2022-09-12T02:09:50.126Z,13.10
2022-09-12T02:12:18.450Z,13.26
2022-09-12T02:14:51.114Z,14.09
2022-09-12T02:17:27.101Z,13.45
2022-09-12T02:20:00.929Z,13.06
2022-09-12T02:22:29.472Z,12.78
2022-09-12T02:24:59.209Z,12.82
2022-09-12T02:27:28.487Z,12.85
2022-09-12T02:29:55.074Z,12.93
2022-09-12T02:32:28.484Z,13.04
2022-09-12T02:34:59.682Z,13.44
2022-09-12T02:37:33.865Z,13.08
2022-09-12T02:40:00.819Z,13.10
2022-09-12T02:42:27.370Z,12.97
2022-09-12T02:44:55.390Z,12.68
2022-09-12T02:47:25.179Z,12.51
2022-09-12T02:49:52.505Z,12.33
2022-09-12T02:52:19.465Z,12.40
2022-09-12T02:54:46.152Z,12.27
2022-09-12T02:57:21.919Z,12.52
2022-09-12T02:59:50.210Z,12.63
2022-09-12T03:02:35.297Z,12.57
2022-09-12T03:05:11.131Z,12.63
2022-09-12T03:07:40.435Z,12.88
2022-09-12T03:10:12.925Z,12.80
2022-09-12T03:12:54.765Z,12.65
2022-09-12T03:15:24.267Z,12.95
2022-09-12T03:17:53.761Z,12.93
2022-09-12T03:20:26.452Z,13.06
2022-09-12T03:23:04.367Z,12.93
2022-09-12T03:25:35.025Z,13.07
2022-09-12T03:28:07.405Z,13.34
2022-09-12T03:30:44.522Z,13.25
2022-09-12T03:33:12.081Z,13.28
2022-09-12T03:35:38.570Z,13.68
2022-09-12T03:38:07.903Z,13.40
2022-09-12T03:40:37.642Z,13.28
2022-09-12T03:43:04.647Z,13.18
2022-09-12T03:45:31.144Z,13.35
2022-09-12T03:47:58.249Z,13.67
2022-09-12T03:50:24.702Z,13.41
2022-09-12T03:52:51.133Z,13.48
2022-09-12T03:55:17.925Z,13.45
2022-09-12T03:57:44.516Z,13.31
2022-09-12T04:00:11.102Z,13.27
2022-09-12T04:02:40.170Z,13.45
2022-09-12T04:05:06.712Z,13.59
2022-09-12T04:07:33.187Z,13.53
2022-09-12T04:09:59.587Z,13.65
2022-09-12T04:12:26.055Z,13.80
2022-09-12T04:14:52.474Z,13.41
2022-09-12T04:17:18.905Z,13.42
2022-09-12T04:19:45.366Z,13.34
2022-09-12T04:22:11.818Z,13.03
2022-09-12T04:24:38.455Z,13.12
2022-09-12T04:27:07.846Z,13.04
2022-09-12T04:29:35.656Z,13.10
2022-09-12T04:32:03.079Z,13.01
2022-09-12T04:34:32.654Z,13.13
2022-09-12T04:36:59.102Z,13.27
2022-09-12T04:39:25.658Z,13.35
2022-09-12T04:41:52.103Z,13.19
2022-09-12T04:44:18.609Z,13.07
2022-09-12T04:46:45.978Z,13.04
2022-09-12T04:49:13.018Z,13.16
2022-09-12T04:51:40.434Z,13.19
2022-09-12T04:54:11.601Z,12.97
2022-09-12T04:56:39.432Z,12.83
2022-09-12T04:59:06.882Z,12.95
2022-09-12T05:01:33.358Z,12.91
2022-09-12T05:04:00.104Z,12.92
2022-09-12T05:06:31.092Z,13.00
2022-09-12T05:08:58.691Z,13.33
2022-09-12T05:11:46.769Z,13.21
2022-09-12T05:14:13.757Z,13.29
2022-09-12T05:16:41.215Z,13.00
2022-09-12T05:19:07.792Z,13.08
2022-09-12T05:21:34.250Z,13.37
2022-09-12T05:24:01.090Z,13.62
2022-09-12T05:26:27.749Z,13.76
2022-09-12T05:28:55.081Z,13.93
2022-09-12T05:31:22.763Z,14.18
2022-09-12T05:33:50.123Z,14.34
2022-09-12T05:36:17.946Z,14.82
2022-09-12T05:38:44.848Z,14.99
2022-09-12T05:41:17.517Z,15.04
2022-09-12T05:43:45.844Z,15.28
2022-09-12T05:46:13.773Z,15.48
2022-09-12T05:48:41.204Z,15.40
2022-09-12T05:51:09.605Z,15.71
2022-09-12T05:53:37.407Z,15.46
2022-09-12T05:56:08.577Z,15.58
2022-09-12T05:58:38.763Z,15.56
2022-09-12T06:01:08.044Z,15.64
2022-09-12T06:03:35.409Z,15.84
2022-09-12T06:06:02.735Z,16.08
2022-09-12T06:08:29.392Z,16.25
2022-09-12T06:11:05.877Z,16.82
2022-09-12T06:13:33.374Z,16.86
2022-09-12T06:16:06.566Z,16.43
2022-09-12T06:18:33.032Z,16.82
2022-09-12T06:21:03.030Z,17.18
2022-09-12T06:23:29.621Z,17.67
2022-09-12T06:25:56.078Z,17.85
2022-09-12T06:28:22.572Z,18.03
2022-09-12T06:30:49.089Z,17.54
2022-09-12T06:33:15.607Z,17.63
2022-09-12T06:35:42.107Z,17.73
2022-09-12T06:38:09.499Z,17.95
2022-09-12T06:40:41.466Z,18.03
2022-09-12T06:43:07.979Z,18.19
2022-09-12T06:45:34.382Z,19.09
2022-09-12T06:48:00.883Z,18.87
2022-09-12T06:50:27.282Z,19.14
2022-09-12T06:52:53.981Z,19.34
2022-09-12T06:55:23.572Z,20.13
2022-09-12T06:57:54.319Z,19.37
2022-09-12T07:00:20.835Z,18.82
2022-09-12T07:02:47.283Z,19.06
2022-09-12T07:05:15.123Z,20.30
2022-09-12T07:07:41.567Z,19.40
2022-09-12T07:10:08.379Z,19.64
2022-09-12T07:12:34.799Z,19.65
2022-09-12T07:15:01.291Z,20.75
2022-09-12T07:17:27.706Z,21.25
2022-09-12T07:19:54.343Z,20.69
2022-09-12T07:22:20.789Z,20.88
2022-09-12T07:24:47.601Z,19.96
2022-09-12T07:27:14.487Z,19.45
2022-09-12T07:29:40.901Z,20.67
2022-09-12T07:32:07.584Z,21.11
2022-09-12T07:34:34.240Z,21.17
2022-09-12T07:37:00.708Z,20.80
2022-09-12T07:39:27.127Z,22.02
2022-09-12T07:41:53.594Z,22.32
2022-09-12T07:46:46.373Z,22.41
2022-09-12T07:49:13.411Z,22.05
2022-09-12T07:51:40.469Z,21.91
2022-09-12T07:54:09.948Z,21.82
2022-09-12T07:56:39.198Z,22.44
2022-09-12T07:59:06.002Z,22.81
2022-09-12T08:01:32.712Z,22.22
2022-09-12T08:03:59.860Z,22.40
2022-09-12T08:06:27.900Z,21.73
2022-09-12T08:08:55.172Z,22.96
2022-09-12T08:11:22.513Z,21.68
2022-09-12T08:13:54.832Z,22.46
2022-09-12T08:16:22.878Z,21.88
2022-09-12T08:18:49.646Z,21.44
2022-09-12T08:21:17.763Z,21.21
2022-09-12T08:23:44.743Z,21.31
2022-09-12T08:26:11.942Z,21.66
2022-09-12T08:28:40.969Z,23.01
2022-09-12T08:31:08.697Z,23.24
2022-09-12T08:33:35.603Z,23.00
2022-09-12T08:36:22.648Z,22.32
2022-09-12T08:38:50.804Z,21.94
2022-09-12T08:41:20.094Z,22.66
2022-09-12T08:43:56.076Z,22.71
2022-09-12T08:46:27.325Z,23.52
2022-09-12T08:48:55.625Z,24.09
2022-09-12T08:51:22.230Z,23.29
2022-09-12T08:53:51.857Z,23.55
2022-09-12T08:56:18.600Z,23.22
2022-09-12T08:58:46.017Z,22.61
2022-09-12T09:01:12.449Z,23.73
2022-09-12T09:04:05.760Z,24.03
2022-09-12T09:06:44.434Z,23.25
2022-09-12T09:09:26.184Z,23.08
2022-09-12T09:11:53.114Z,23.30
2022-09-12T09:14:58.073Z,23.01
2022-09-12T09:17:32.562Z,22.40
2022-09-12T09:20:03.269Z,22.65
2022-09-12T09:22:44.541Z,23.37
2022-09-12T09:25:31.316Z,23.13
2022-09-12T09:28:04.656Z,23.44
2022-09-12T09:30:31.726Z,24.17
2022-09-12T09:33:00.301Z,23.05
2022-09-12T09:35:26.710Z,22.64
2022-09-12T09:38:00.882Z,22.89
2022-09-12T09:40:31.037Z,24.62
2022-09-12T09:43:04.640Z,24.39
2022-09-12T09:45:31.229Z,24.66
2022-09-12T09:47:59.779Z,24.89
2022-09-12T09:50:26.498Z,24.92
2022-09-12T09:52:55.793Z,24.92
2022-09-12T09:55:26.381Z,24.71
2022-09-12T09:57:53.566Z,23.84
2022-09-12T10:00:27.861Z,23.66
2022-09-12T10:03:00.411Z,23.86
2022-09-12T10:05:28.534Z,23.19
2022-09-12T10:07:55.135Z,23.38
2022-09-12T10:10:25.336Z,24.23
2022-09-12T10:13:05.916Z,23.94
2022-09-12T10:15:34.720Z,26.24
2022-09-12T10:18:03.041Z,25.13
2022-09-12T10:20:31.226Z,26.00
2022-09-12T10:23:01.786Z,27.31
2022-09-12T10:25:28.606Z,26.29
2022-09-12T10:27:57.253Z,26.87
2022-09-12T10:30:28.101Z,25.37
2022-09-12T10:32:57.982Z,27.11
2022-09-12T10:35:42.361Z,25.65
2022-09-12T10:38:23.623Z,25.95
2022-09-12T10:41:01.536Z,27.88
2022-09-12T10:43:30.952Z,28.18
2022-09-12T10:45:58.489Z,28.63
2022-09-12T10:48:24.939Z,28.37
2022-09-12T10:50:51.895Z,28.75
2022-09-12T10:53:41.578Z,28.95
2022-09-12T10:56:08.185Z,29.16
2022-09-12T10:58:53.697Z,27.31
2022-09-12T11:01:32.576Z,25.26
2022-09-12T11:04:02.102Z,25.57
2022-09-12T11:06:36.597Z,26.39
2022-09-12T11:09:09.618Z,27.53
2022-09-12T11:11:37.175Z,26.11
2022-09-12T11:14:03.567Z,27.97
2022-09-12T11:16:41.088Z,28.07
2022-09-12T11:19:24.700Z,26.29
2022-09-12T11:22:06.299Z,26.06
2022-09-12T11:24:41.333Z,25.63
2022-09-12T11:27:26.726Z,25.11
2022-09-12T11:30:02.294Z,26.01
2022-09-12T11:32:35.559Z,24.57
2022-09-12T11:35:17.448Z,24.56
2022-09-12T11:37:53.520Z,24.95
2022-09-12T11:40:23.043Z,25.68
2022-09-12T11:42:52.669Z,27.01
2022-09-12T11:45:24.610Z,26.95
2022-09-12T11:47:54.452Z,28.68
2022-09-12T11:50:29.482Z,28.18
2022-09-12T11:53:00.202Z,30.11
2022-09-12T11:55:29.890Z,29.47
2022-09-12T11:57:57.172Z,27.12
2022-09-12T12:00:30.891Z,26.84
2022-09-12T12:03:06.555Z,26.88
2022-09-12T12:05:36.135Z,25.96
2022-09-12T12:08:04.681Z,25.21
2022-09-12T12:10:37.266Z,25.29
2022-09-12T12:13:11.939Z,24.24
2022-09-12T12:15:45.991Z,25.06
2022-09-12T12:18:17.617Z,25.01
2022-09-12T12:20:44.289Z,25.18
2022-09-12T12:23:29.178Z,24.56
2022-09-12T12:25:59.817Z,24.76
2022-09-12T12:28:38.553Z,24.94
2022-09-12T12:31:05.456Z,25.21
2022-09-12T12:33:31.892Z,24.72
2022-09-12T12:36:01.587Z,24.38
2022-09-12T12:38:27.996Z,24.57
2022-09-12T12:40:54.802Z,24.72
2022-09-12T12:43:32.149Z,24.80
2022-09-12T12:46:00.944Z,24.33
2022-09-12T12:48:29.387Z,23.87
2022-09-12T12:51:14.443Z,25.26
2022-09-12T12:53:41.958Z,25.98
2022-09-12T12:56:25.670Z,25.04
2022-09-12T12:58:58.649Z,26.16
2022-09-12T13:01:25.673Z,27.52
2022-09-12T13:04:01.339Z,27.88
2022-09-12T13:06:33.922Z,28.19
2022-09-12T13:09:02.354Z,27.52
2022-09-12T13:11:39.166Z,28.69
2022-09-12T13:14:09.398Z,27.90
2022-09-12T13:16:35.883Z,25.97
2022-09-12T13:19:04.460Z,25.85
2022-09-12T13:21:31.107Z,24.83
2022-09-12T13:24:02.635Z,25.09
2022-09-12T13:26:32.765Z,25.33
2022-09-12T13:29:09.078Z,24.80
2022-09-12T13:31:35.622Z,25.39
2022-09-12T13:34:05.187Z,25.67
2022-09-12T13:36:50.473Z,25.55
2022-09-12T13:39:21.951Z,26.80
2022-09-12T13:42:07.461Z,27.36
2022-09-12T13:44:39.190Z,27.24
2022-09-12T13:47:05.664Z,25.65
2022-09-12T13:49:35.216Z,24.83
2022-09-12T13:52:06.791Z,25.88
2022-09-12T13:54:34.008Z,26.57
2022-09-12T13:57:00.567Z,26.69
2022-09-12T13:59:27.109Z,26.37
2022-09-12T14:01:53.749Z,25.62
2022-09-12T14:04:42.986Z,25.47
2022-09-12T14:07:14.066Z,26.52
2022-09-12T14:09:41.723Z,26.51
2022-09-12T14:12:22.132Z,27.58
2022-09-12T14:14:50.438Z,27.39
2022-09-12T14:17:23.031Z,26.77
2022-09-12T14:19:50.746Z,27.07
2022-09-12T14:22:20.232Z,25.73
2022-09-12T14:24:51.432Z,26.62
2022-09-12T14:27:19.778Z,27.89
2022-09-12T14:29:47.251Z,27.93
2022-09-12T14:32:21.200Z,28.02
2022-09-12T14:35:16.962Z,28.71
2022-09-12T14:37:44.681Z,28.36
2022-09-12T14:40:19.218Z,27.11
2022-09-12T14:42:46.823Z,27.07
2022-09-12T14:45:16.661Z,27.62
2022-09-12T14:47:44.410Z,27.52
2022-09-12T14:50:18.902Z,27.19
2022-09-12T14:52:47.735Z,27.64
2022-09-12T14:55:29.467Z,26.42
2022-09-12T14:58:15.370Z,27.35
2022-09-12T15:01:04.839Z,28.04
2022-09-12T15:03:33.169Z,26.25
2022-09-12T15:06:02.755Z,27.09
2022-09-12T15:08:30.262Z,26.88
2022-09-12T15:10:57.400Z,27.17
2022-09-12T15:13:25.849Z,27.09
2022-09-12T15:15:53.774Z,26.83
2022-09-12T15:18:21.133Z,26.61
2022-09-12T15:20:49.862Z,26.47
2022-09-12T15:23:36.242Z,26.58
2022-09-12T15:26:03.311Z,25.92
2022-09-12T15:28:30.828Z,26.49
2022-09-12T15:30:58.725Z,26.64
2022-09-12T15:33:25.519Z,26.81
2022-09-12T15:35:52.710Z,26.14
2022-09-12T15:38:23.052Z,25.75
2022-09-12T15:40:55.776Z,25.28
2022-09-12T15:43:22.781Z,25.18
2022-09-12T15:45:51.443Z,24.81
2022-09-12T15:48:18.107Z,24.42
2022-09-12T15:50:44.692Z,24.60
2022-09-12T15:53:14.184Z,24.62
2022-09-12T15:55:40.683Z,23.88
2022-09-12T15:58:07.605Z,24.24
2022-09-12T16:00:34.097Z,23.66
2022-09-12T16:03:01.210Z,23.69
2022-09-12T16:05:27.887Z,24.08
2022-09-12T16:07:55.146Z,24.00
2022-09-12T16:10:23.408Z,23.75
2022-09-12T16:12:50.015Z,23.44
2022-09-12T16:15:19.121Z,23.41
2022-09-12T16:17:45.639Z,22.75
2022-09-12T16:20:12.784Z,23.16
2022-09-12T16:22:39.611Z,22.74
2022-09-12T16:25:06.490Z,22.81
2022-09-12T16:27:33.022Z,22.05
2022-09-12T16:29:59.570Z,22.15
2022-09-12T16:32:26.202Z,22.04
2022-09-12T16:34:52.834Z,21.88
2022-09-12T16:37:19.341Z,21.62
2022-09-12T16:39:46.438Z,21.75
2022-09-12T16:42:12.929Z,21.97
2022-09-12T16:44:39.330Z,21.39
2022-09-12T16:47:05.824Z,20.83
2022-09-12T16:49:32.249Z,20.73
2022-09-12T16:51:58.691Z,20.93
2022-09-12T16:54:25.183Z,20.42
2022-09-12T16:56:51.638Z,20.27
2022-09-12T16:59:18.141Z,19.82
2022-09-12T17:01:45.261Z,20.29
2022-09-12T17:04:11.874Z,20.16
2022-09-12T17:06:38.550Z,20.24
2022-09-12T17:09:05.168Z,20.19
2022-09-12T17:11:36.426Z,20.34
2022-09-12T17:14:06.970Z,20.03
2022-09-12T17:16:35.316Z,20.37
2022-09-12T17:19:01.825Z,20.29
2022-09-12T17:21:28.342Z,20.48
2022-09-12T17:23:55.356Z,19.94
2022-09-12T17:26:21.830Z,19.84
2022-09-12T17:28:48.300Z,19.60
2022-09-12T17:31:15.182Z,19.49
2022-09-12T17:33:41.962Z,19.54
2022-09-12T17:36:14.944Z,19.48
2022-09-12T17:38:42.526Z,19.38
2022-09-12T17:41:17.734Z,19.23
2022-09-12T17:43:46.415Z,19.19
2022-09-12T17:46:12.995Z,19.17
2022-09-12T17:48:39.430Z,18.82
2022-09-12T17:51:09.870Z,19.23
2022-09-12T17:53:36.403Z,19.19
2022-09-12T17:56:04.022Z,18.88
2022-09-12T17:58:30.899Z,19.15
2022-09-12T18:01:22.601Z,18.95
2022-09-12T18:03:49.268Z,18.87
2022-09-12T18:06:15.761Z,18.80
2022-09-12T18:08:42.187Z,18.72
2022-09-12T18:11:08.631Z,18.58
2022-09-12T18:13:35.529Z,18.66
2022-09-12T18:16:02.827Z,18.57
2022-09-12T18:18:29.362Z,18.39
2022-09-12T18:20:55.774Z,18.34
2022-09-12T18:23:22.372Z,18.19
2022-09-12T18:25:48.862Z,18.01
2022-09-12T18:28:15.265Z,18.20
2022-09-12T18:30:42.385Z,18.15
2022-09-12T18:33:08.886Z,18.09
2022-09-12T18:35:37.861Z,18.22
2022-09-12T18:38:04.269Z,18.16
2022-09-12T18:40:30.684Z,17.99
2022-09-12T18:42:57.187Z,18.02
2022-09-12T18:45:23.609Z,17.80
2022-09-12T18:47:50.109Z,18.06
2022-09-12T18:50:16.690Z,17.98
2022-09-12T18:52:43.110Z,18.06
2022-09-12T18:55:09.783Z,18.46
2022-09-12T18:57:36.418Z,18.13
2022-09-12T19:00:07.306Z,17.88
2022-09-12T19:02:36.978Z,17.63
2022-09-12T19:05:03.472Z,17.76
2022-09-12T19:07:29.894Z,17.90
2022-09-12T19:09:56.457Z,17.84
2022-09-12T19:12:23.081Z,17.87
2022-09-12T19:14:49.568Z,17.78
2022-09-12T19:17:17.933Z,17.71
2022-09-12T19:19:44.380Z,17.64
2022-09-12T19:22:10.838Z,17.88
2022-09-12T19:24:37.443Z,17.76
2022-09-12T19:27:04.132Z,17.53
2022-09-12T19:29:31.211Z,17.52
2022-09-12T19:31:57.862Z,17.61
2022-09-12T19:34:24.897Z,17.75
2022-09-12T19:36:51.333Z,17.69
2022-09-12T19:39:19.482Z,17.51
2022-09-12T19:41:46.118Z,17.63
2022-09-12T19:44:12.915Z,17.43
2022-09-12T19:46:39.406Z,17.23
2022-09-12T19:49:05.941Z,17.36
2022-09-12T19:51:32.417Z,17.37
2022-09-12T19:53:58.929Z,17.25
2022-09-12T19:56:25.339Z,17.12
2022-09-12T19:58:56.042Z,17.28
2022-09-12T20:01:25.069Z,17.27
2022-09-12T20:03:53.716Z,17.10
2022-09-12T20:06:20.318Z,16.80
2022-09-12T20:08:46.949Z,16.95
2022-09-12T20:11:15.022Z,16.92
2022-09-12T20:13:41.503Z,16.77
2022-09-12T20:16:15.003Z,16.94
2022-09-12T20:18:44.264Z,16.87
2022-09-12T20:21:18.219Z,16.77
2022-09-12T20:23:45.256Z,17.22
2022-09-12T20:26:12.381Z,17.11
2022-09-12T20:28:39.448Z,16.85
2022-09-12T20:31:15.806Z,16.72
2022-09-12T20:33:42.748Z,16.60
2022-09-12T20:36:11.639Z,16.58
2022-09-12T20:38:38.541Z,16.48
2022-09-12T20:41:06.114Z,16.55
2022-09-12T20:43:32.730Z,16.66
2022-09-12T20:45:59.236Z,16.62
2022-09-12T20:48:25.749Z,16.41
2022-09-12T20:50:52.210Z,16.34
2022-09-12T20:53:18.684Z,16.28
2022-09-12T20:55:52.316Z,16.53
2022-09-12T20:58:19.781Z,16.58
2022-09-12T21:00:46.505Z,16.47
2022-09-12T21:03:13.335Z,16.30
2022-09-12T21:05:39.858Z,16.45
2022-09-12T21:08:06.508Z,16.50
2022-09-12T21:10:32.991Z,16.38
2022-09-12T21:12:59.451Z,16.09
2022-09-12T21:15:26.025Z,15.86
2022-09-12T21:17:52.565Z,15.93
2022-09-12T21:20:19.232Z,16.01
2022-09-12T21:22:45.708Z,16.08
2022-09-12T21:25:12.720Z,16.02
2022-09-12T21:27:39.141Z,15.84
2022-09-12T21:30:06.041Z,15.57
2022-09-12T21:32:35.863Z,15.51
2022-09-12T21:35:03.239Z,15.48
2022-09-12T21:37:29.662Z,15.42
2022-09-12T21:39:56.181Z,15.55
2022-09-12T21:42:22.643Z,15.63
2022-09-12T21:44:49.451Z,15.79
2022-09-12T21:47:15.935Z,15.31
2022-09-12T21:49:42.362Z,15.22
2022-09-12T21:52:09.108Z,15.21
2022-09-12T21:54:35.575Z,15.39
2022-09-12T21:57:02.108Z,15.35
2022-09-12T21:59:28.565Z,15.16
2022-09-12T22:01:55.063Z,15.23
2022-09-12T22:04:21.525Z,15.25
2022-09-12T22:06:47.973Z,14.91
2022-09-12T22:09:16.847Z,15.19
2022-09-12T22:11:44.033Z,15.12
2022-09-12T22:14:10.794Z,15.23
2022-09-12T22:16:37.222Z,15.28
2022-09-12T22:19:03.743Z,15.23
2022-09-12T22:21:30.170Z,15.30
2022-09-12T22:24:15.301Z,15.15
2022-09-12T22:26:43.174Z,14.95
2022-09-12T22:29:10.974Z,15.00
2022-09-12T22:31:37.854Z,14.93
2022-09-12T22:34:04.656Z,14.97
2022-09-12T22:36:31.911Z,14.91
2022-09-12T22:38:59.627Z,14.91
2022-09-12T22:41:26.149Z,14.90
2022-09-12T22:43:52.641Z,14.89
2022-09-12T22:46:19.258Z,14.90
2022-09-12T22:48:46.713Z,15.00
2022-09-12T22:51:13.137Z,14.82
2022-09-12T22:53:39.656Z,14.54
2022-09-12T22:56:06.525Z,14.57
2022-09-12T22:58:33.520Z,14.71
2022-09-12T23:01:00.097Z,14.83
2022-09-12T23:03:26.719Z,14.76
2022-09-12T23:05:53.211Z,14.46
2022-09-12T23:08:19.640Z,14.37
2022-09-12T23:10:46.741Z,14.44
2022-09-12T23:13:13.185Z,14.54
2022-09-12T23:15:39.839Z,14.67
2022-09-12T23:18:06.477Z,14.71
2022-09-12T23:20:32.950Z,14.66
2022-09-12T23:22:59.408Z,14.66
2022-09-12T23:25:26.191Z,14.54
2022-09-12T23:27:52.945Z,14.44
2022-09-12T23:30:21.614Z,14.60
2022-09-12T23:32:48.874Z,14.65
2022-09-12T23:35:18.032Z,14.28
2022-09-12T23:37:44.529Z,14.21
2022-09-12T23:40:11.231Z,14.05
2022-09-12T23:42:37.712Z,13.98
2022-09-12T23:45:04.402Z,14.15
2022-09-12T23:47:30.889Z,14.30
2022-09-12T23:49:57.347Z,14.18
2022-09-12T23:52:23.885Z,14.14
2022-09-12T23:54:50.413Z,14.08
2022-09-12T23:57:16.917Z,13.95
2022-09-12T23:59:43.406Z,13.99
